• Join FlightAware (Why Join?)
  • Login
  • US Flag 
05:24PM EST


 

Airport Tracker/Info


-or-


 

Live Flight TrackerFlight Track Log ✈ C-GAWM ✈ 18-Aug-2014 ✈ CYEG - CZJN

Flight Track Log - Related Links

Times and Time Zones

All times are in EDT time to prevent confusion due to time zone crossing. See the C-GAWM flight status page for this flight to view local times or setup timezone preferences in your user account.

Time Position Orientation Groundspeed Altitude Reporting Facility
EDT Latitude Longitude Course Direction KTS MPH feet Rate Location/Type
02:39AM 53.2833 -113.6000 230° Southwest 80 92 2,800  Level Edmonton Center
02:40AM 53.2667 -113.6333 230° Southwest 110 127 3,600 840 Climbing Edmonton Center
02:41AM 53.2167 -113.6500 191° South 120 138 4,500 900 Climbing Edmonton Center
02:42AM 53.2000 -113.6167 130° Southeast 130 150 5,400 900 Climbing Edmonton Center
02:43AM 53.1667 -113.5833 149° Southeast 130 150 6,400 960 Climbing Edmonton Center
02:44AM 53.1333 -113.5500 149° Southeast 140 161 7,400 960 Climbing Edmonton Center
02:45AM 53.1167 -113.4667 108° East 140 161 8,400 780 Climbing Edmonton Center
02:46AM 53.1167 -113.4000 90° East 150 173 9,000 300 Climbing Edmonton Center
02:47AM 53.1167 -113.3167 90° East 170 196 9,000  Level Edmonton Center
02:48AM 53.1167 -113.2333 90° East 180 207 9,000  Level Edmonton Center
02:49AM 53.1000 -113.1500 108° East 180 207 9,000  Level Edmonton Center
02:50AM 53.1000 -113.0833 90° East 180 207 9,000  Level Edmonton Center
02:51AM 53.1000 -112.9833 90° East 180 207 9,000  Level Edmonton Center
02:52AM 53.0833 -112.9167 113° Southeast 180 207 9,000  Level Edmonton Center
02:53AM 53.0833 -112.8000 90° East 180 207 9,000  Level Edmonton Center
02:54AM 53.0833 -112.7500 90° East 180 207 9,000  Level Edmonton Center
02:55AM 53.0667 -112.6667 108° East 180 207 9,000  Level Edmonton Center
02:56AM 53.0667 -112.5667 90° East 180 207 9,000  Level Edmonton Center
02:57AM 53.0667 -112.4833 90° East 180 207 9,000  Level Edmonton Center
02:58AM 53.0500 -112.4000 108° East 180 207 9,000  Level Edmonton Center
02:59AM 53.0667 -112.3167 72° East 180 207 9,000  Level Edmonton Center
03:00AM 53.0500 -112.2333 108° East 180 207 9,000  Level Edmonton Center
03:01AM 53.0333 -112.1500 108° East 180 207 9,000  Level Edmonton Center
03:02AM 53.0500 -112.0667 72° East 180 207 9,000  Level Edmonton Center
03:03AM 53.0333 -111.9667 105° East 180 207 9,000  Level Edmonton Center
03:04AM 53.0167 -111.8833 108° East 180 207 9,000  Level Edmonton Center
03:05AM 53.0333 -111.8000 72° East 180 207 9,000  Level Edmonton Center
03:06AM 53.0167 -111.7167 108° East 180 207 9,000  Level Edmonton Center
03:07AM 53.0000 -111.6333 108° East 180 207 9,000  Level Edmonton Center
03:07AM 53.0167 -111.6167 31° Northeast 180 207 9,000  Level Winnipeg Center
03:08AM 53.0167 -111.5333 90° East 180 207 9,000  Level Winnipeg Center
03:09AM 53.0000 -111.4667 113° Southeast 180 207 9,000  Level Winnipeg Center
03:10AM 53.0000 -111.3833 90° East 180 207 9,000  Level Winnipeg Center
03:11AM 52.9833 -111.3000 108° East 180 207 9,000  Level Winnipeg Center
03:12AM 53.0000 -111.2167 72° East 180 207 9,000  Level Winnipeg Center
03:13AM 52.9833 -111.1333 108° East 180 207 9,000  Level Winnipeg Center
03:14AM 52.9833 -111.0500 90° East 180 207 9,000  Level Winnipeg Center
03:15AM 52.9667 -110.9833 113° Southeast 180 207 9,000  Level Winnipeg Center
03:17AM 52.9500 -110.8000 99° East 200 230 9,000  Level Edmonton Center
03:18AM 52.9500 -110.7167 90° East 190 219 9,000  Level Edmonton Center
03:19AM 52.9333 -110.6333 108° East 180 207 9,000  Level Edmonton Center
03:20AM 52.9500 -110.5500 72° East 180 207 9,000  Level Edmonton Center
03:21AM 52.9333 -110.4667 108° East 180 207 9,000  Level Edmonton Center
03:22AM 52.9333 -110.3833 90° East 180 207 9,000  Level Edmonton Center
03:23AM 52.9167 -110.3000 108° East 180 207 9,000  Level Edmonton Center
03:24AM 52.9167 -110.2167 90° East 180 207 9,000  Level Edmonton Center
03:25AM 52.9167 -110.1500 90° East 180 207 9,000  Level Edmonton Center
03:26AM 52.9167 -110.0667 90° East 180 207 9,000  Level Edmonton Center
03:27AM 52.9167 -109.9833 90° East 180 207 9,000  Level Edmonton Center
03:28AM 52.9000 -109.9000 108° East 180 207 9,000  Level Edmonton Center
03:29AM 52.9000 -109.8167 90° East 190 219 9,000  Level Edmonton Center
03:30AM 52.9000 -109.7333 90° East 180 207 9,000  Level Edmonton Center
03:31AM 52.9000 -109.6500 90° East 180 207 9,000  Level Edmonton Center
03:32AM 52.9000 -109.6167 90° East 180 207 9,000  Level Winnipeg Center
03:33AM 52.8833 -109.5167 105° East 180 207 9,000  Level Winnipeg Center
03:34AM 52.9000 -109.4333 72° East 180 207 9,000  Level Winnipeg Center
03:35AM 52.8833 -109.3500 108° East 190 219 9,000  Level Winnipeg Center
03:36AM 52.8833 -109.2667 90° East 180 207 9,000  Level Winnipeg Center
03:38AM 52.8667 -109.1167 100° East 180 207 9,000  Level Winnipeg Center
03:39AM 52.8667 -109.0333 90° East 190 219 9,000  Level Winnipeg Center
03:40AM 52.8667 -108.9500 90° East 180 207 9,000  Level Winnipeg Center
03:41AM 52.8500 -108.8667 108° East 190 219 9,000  Level Winnipeg Center
03:43AM 52.8333 -108.6667 98° East 220 253 9,000  Level Edmonton Center
03:44AM 52.8167 -108.5667 105° East 180 207 9,000  Level Edmonton Center
03:45AM 52.8167 -108.5000 90° East 200 230 9,000  Level Winnipeg Center
03:46AM 52.8333 -108.4167 72° East 190 219 9,000  Level Winnipeg Center
03:47AM 52.8167 -108.3333 108° East 180 207 9,000  Level Winnipeg Center
03:48AM 52.8167 -108.2500 90° East 190 219 9,000  Level Winnipeg Center
03:49AM 52.8000 -108.1500 105° East 190 219 9,000  Level Winnipeg Center
03:50AM 52.8000 -108.0667 90° East 190 219 9,000  Level Winnipeg Center
03:51AM 52.8000 -107.9833 90° East 180 207 9,000  Level Winnipeg Center
03:53AM 52.7833 -107.8500 102° East 190 219 9,000  Level Winnipeg Center
03:54AM 52.7667 -107.7833 112° Southeast 190 219 9,000  Level Winnipeg Center
03:55AM 52.7667 -107.6667 90° East 190 219 9,000  Level Winnipeg Center
03:56AM 52.7667 -107.5833 90° East 190 219 9,000  Level Winnipeg Center
03:57AM 52.7667 -107.5000 90° East 190 219 9,000  Level Winnipeg Center
03:58AM 52.7500 -107.4167 108° East 190 219 9,000  Level Winnipeg Center
03:59AM 52.7333 -107.3667 119° Southeast 180 207 9,000  Level Winnipeg Center
04:00AM 52.7333 -107.2667 90° East 180 207 9,000  Level Winnipeg Center
04:01AM 52.7333 -107.2000 90° East 180 207 9,000  Level Winnipeg Center
04:02AM 52.7333 -107.1000 90° East 180 207 9,000  Level Winnipeg Center
04:03AM 52.7167 -107.0167 108° East 180 207 9,000  Level Winnipeg Center
04:04AM 52.7167 -106.9333 90° East 180 207 9,000  Level Winnipeg Center
04:05AM 52.7000 -106.8500 108° East 180 207 9,000  Level Winnipeg Center
04:06AM 52.6833 -106.7667 108° East 180 207 9,000  Level Winnipeg Center
04:07AM 52.7000 -106.6833 72° East 190 219 9,000  Level Winnipeg Center
04:08AM 52.6833 -106.6000 108° East 190 219 9,000  Level Winnipeg Center
04:09AM 52.6833 -106.5167 90° East 180 207 9,000  Level Winnipeg Center
04:10AM 52.6667 -106.4167 105° East 180 207 9,000  Level Winnipeg Center
04:11AM 52.6500 -106.3333 108° East 190 219 9,000  Level Winnipeg Center
04:12AM 52.6500 -106.2500 90° East 190 219 9,000  Level Winnipeg Center
04:13AM 52.6500 -106.1667 90° East 190 219 9,000 -60 Level Winnipeg Center
04:14AM 52.6500 -106.0833 90° East 190 219 8,900 -60 Descending Winnipeg Center
04:15AM 52.6333 -106.0000 108° East 190 219 8,900  Level Winnipeg Center
04:16AM 52.6167 -105.9167 108° East 190 219 8,900  Level Winnipeg Center
04:17AM 52.6167 -105.8333 90° East 190 219 8,900  Level Winnipeg Center
04:18AM 52.6167 -105.7500 90° East 180 207 8,900  Level Winnipeg Center
04:19AM 52.6000 -105.6667 108° East 190 219 8,900  Level Winnipeg Center
04:20AM 52.6000 -105.5833 90° East 190 219 8,900  Level Winnipeg Center
04:21AM 52.5833 -105.5000 108° East 180 207 8,900  Level Winnipeg Center
04:22AM 52.5833 -105.4000 90° East 180 207 8,900  Level Winnipeg Center
04:23AM 52.5667 -105.3167 108° East 180 207 8,900  Level Winnipeg Center
04:24AM 52.5667 -105.2333 90° East 180 207 8,900  Level Winnipeg Center
04:25AM 52.5667 -105.1500 90° East 180 207 8,900  Level Winnipeg Center
04:26AM 52.5500 -105.0667 108° East 180 207 8,900  Level Winnipeg Center
04:27AM 52.5333 -105.0167 119° Southeast 180 207 8,900  Level Winnipeg Center
04:28AM 52.5167 -104.9333 108° East 180 207 8,900  Level Winnipeg Center
04:29AM 52.5333 -104.8500 72° East 180 207 8,900  Level Winnipeg Center
04:30AM 52.5167 -104.7667 108° East 180 207 8,900  Level Winnipeg Center
04:31AM 52.5000 -104.6833 108° East 180 207 8,900  Level Winnipeg Center
04:32AM 52.5000 -104.5833 90° East 180 207 8,900  Level Winnipeg Center
04:33AM 52.4833 -104.5000 108° East 180 207 8,900  Level Winnipeg Center
04:34AM 52.4667 -104.4167 108° East 180 207 8,900  Level Winnipeg Center
04:35AM 52.4833 -104.3333 72° East 180 207 8,900  Level Winnipeg Center
04:36AM 52.4667 -104.2833 119° Southeast 180 207 8,900  Level Winnipeg Center
04:37AM 52.4500 -104.2000 108° East 180 207 8,900  Level Winnipeg Center
04:38AM 52.4500 -104.1167 90° East 180 207 8,900  Level Winnipeg Center
04:39AM 52.4500 -104.0333 90° East 180 207 8,900  Level Winnipeg Center
04:40AM 52.4333 -103.9500 108° East 180 207 8,900  Level Winnipeg Center
04:41AM 52.4333 -103.8667 90° East 180 207 8,900  Level Winnipeg Center
04:43AM 52.4000 -103.7167 110° East 200 230 8,900  Level Winnipeg Center
04:46AM 52.3860 -103.5740 99° East  Level FlightAware Approximate
04:53AM 52.3306 -103.0251 99° East  Level FlightAware Approximate
04:54AM 52.3224 -102.9468 100° East  Level FlightAware Approximate
04:55AM 52.3143 -102.8685 100° East  Level FlightAware Approximate
04:56AM 52.3060 -102.7903 100° East  Level FlightAware Approximate
04:57AM 52.2976 -102.7123 101° East  Level FlightAware Approximate
04:58AM 52.2885 -102.6343 101° East  Level FlightAware Approximate
04:59AM 52.2794 -102.5564 101° East  Level FlightAware Approximate
05:00AM 52.2702 -102.4785 101° East  Level FlightAware Approximate
05:01AM 52.2609 -102.4006 101° East  Level FlightAware Approximate
05:02AM 52.2517 -102.3228 101° East  Level FlightAware Approximate
05:03AM 52.2423 -102.2450 101° East  Level FlightAware Approximate
05:04AM 52.2329 -102.1672 101° East  Level FlightAware Approximate
05:05AM 52.2235 -102.0895 101° East  Level FlightAware Approximate
05:06AM 52.2142 -102.0117 100° East  Level FlightAware Approximate
05:07AM 52.2053 -101.9339 101° East  Level FlightAware Approximate
05:08AM 52.1964 -101.8560 101° East  Level FlightAware Approximate
05:09AM 52.1874 -101.7782 101° East  Level FlightAware Approximate
05:10AM 52.1784 -101.7004 101° East  Level FlightAware Approximate
05:11AM 52.1693 -101.6227 101° East  Level FlightAware Approximate
05:12AM 52.1589 -101.5454 103° East  Level FlightAware Approximate
05:13AM 52.1480 -101.4683 103° East  Level FlightAware Approximate
05:14AM 52.1370 -101.3913 103° East  Level FlightAware Approximate
05:15AM 52.1259 -101.3143 103° East  Level FlightAware Approximate
05:16AM 52.1167 -101.2370 90° East  Level FlightAware Approximate
05:17AM 52.1167 -101.2333 90° East  Level FlightAware Approximate
05:18AM 52.1206 -101.2364 90° East  Level Estimated
05:19AM 52.1167 -101.2333 90° East  Level FlightAware Approximate
05:20AM 52.1206 -101.2364 90° East  Level Estimated
05:21AM 52.1167 -101.2333 90° East  Level FlightAware Approximate
05:22AM 52.1206 -101.2364 90° East  Level Estimated
05:23AM 52.1167 -101.2333 90° East  Level FlightAware Approximate
05:24AM 52.1206 -101.2364 90° East  Level Estimated
05:25AM 52.1167 -101.2333 90° East  Level FlightAware Approximate
05:26AM 52.1206 -101.2364 90° East  Level Estimated
05:27AM 52.1167 -101.2333 90° East  Level FlightAware Approximate
05:28AM 52.1206 -101.2364 90° East  Level Estimated
05:29AM 52.1167 -101.2333 90° East  Level FlightAware Approximate
05:30AM 52.1206 -101.2364 90° East  Level Estimated
05:31AM 52.1167 -101.2333 90° East  Level FlightAware Approximate